Time;durP1;ratioP1;P1;durP2;ratioP2;P2;SDS_P1;SDS_P2;PMS_P1;PMS_P2;Temp;Humidity;BMP_temperature;BMP_pressure;BME280_temperature;BME280_humidity;BME280_pressure;Samples;Min_cycle;Max_cycle;Signal;HPM_P1;HPM_P2
2023/09/03 00:01:34;;;;;;;5.50;4.97;;;;;;;18.76;55.90;95319.31;5094247;28;20466;-74
2023/09/03 00:03:59;;;;;;;5.88;5.28;;;;;;;18.81;55.55;95337.25;5092504;28;20024;-75
2023/09/03 00:06:24;;;;;;;6.60;5.25;;;;;;;18.64;56.15;95331.16;5091342;28;20047;-76
2023/09/03 00:08:50;;;;;;;6.43;5.50;;;;;;;18.87;56.49;95341.84;5093054;28;20021;-76
2023/09/03 00:11:16;;;;;;;5.97;5.35;;;;;;;18.75;55.36;95344.81;5076218;28;20039;-75
2023/09/03 00:13:42;;;;;;;6.88;6.18;;;;;;;18.66;56.11;95345.75;5071853;28;20052;-75
2023/09/03 00:16:08;;;;;;;6.20;5.45;;;;;;;18.55;55.95;95332.91;5079638;28;20536;-76
2023/09/03 00:18:33;;;;;;;6.35;5.65;;;;;;;18.49;55.96;95323.88;5091857;28;20028;-76
2023/09/03 00:21:04;;;;;;;5.93;5.30;;;;;;;18.61;55.53;95337.56;5073566;28;20635;-75
2023/09/03 00:23:30;;;;;;;7.28;5.35;;;;;;;18.74;55.00;95337.06;5072437;28;20101;-74
2023/09/03 00:25:58;;;;;;;7.35;5.32;;;;;;;18.70;55.20;95336.56;5073627;28;20036;-74
2023/09/03 00:28:24;;;;;;;5.97;5.38;;;;;;;18.49;55.51;95308.09;5072325;28;20028;-75
2023/09/03 00:31:18;;;;;;;6.63;5.32;;;;;;;18.50;56.01;95322.09;5089167;28;20456;-74
2023/09/03 00:33:44;;;;;;;9.30;5.60;;;;;;;18.40;56.02;95300.38;5064279;28;20048;-74
2023/09/03 00:36:09;;;;;;;6.38;5.53;;;;;;;18.46;56.25;95323.38;5074558;28;20468;-75
2023/09/03 00:38:35;;;;;;;7.20;5.45;;;;;;;18.44;56.10;95335.88;5093571;28;20543;-75
2023/09/03 00:41:04;;;;;;;6.30;5.70;;;;;;;18.49;56.20;95331.78;5058908;28;20032;-75
2023/09/03 00:43:29;;;;;;;7.70;5.60;;;;;;;18.46;56.47;95328.66;5066464;28;20480;-74
2023/09/03 00:45:55;;;;;;;6.18;5.57;;;;;;;18.45;56.79;95342.81;5077210;28;20513;-74
2023/09/03 00:48:23;;;;;;;7.07;6.38;;;;;;;18.42;57.04;95335.25;5074841;28;20040;-74
2023/09/03 00:50:48;;;;;;;6.68;5.65;;;;;;;18.34;57.14;95324.72;5088765;28;20043;-75
2023/09/03 00:53:15;;;;;;;6.40;5.80;;;;;;;18.34;57.42;95328.16;5056793;28;20024;-75
2023/09/03 00:55:41;;;;;;;6.95;5.75;;;;;;;18.34;57.16;95330.78;5075317;28;20032;-74
2023/09/03 00:58:06;;;;;;;6.50;5.70;;;;;;;18.31;57.31;95316.16;5053938;28;20544;-74
2023/09/03 01:00:32;;;;;;;6.88;6.18;;;;;;;18.29;57.71;95327.81;5055116;28;20086;-74
2023/09/03 01:02:58;;;;;;;6.63;5.78;;;;;;;18.20;58.23;95331.41;5054967;28;20028;-74
2023/09/03 01:05:23;;;;;;;7.70;6.40;;;;;;;18.29;58.00;95328.63;5062432;28;20036;-74
2023/09/03 01:07:49;;;;;;;6.90;6.10;;;;;;;18.18;58.11;95322.84;5087318;28;20036;-74
2023/09/03 01:10:15;;;;;;;7.28;5.75;;;;;;;18.27;58.04;95320.06;5091833;28;20036;-75
2023/09/03 01:12:52;;;;;;;6.55;5.85;;;;;;;18.01;58.49;95306.22;5074766;28;20074;-74
2023/09/03 01:15:22;;;;;;;7.03;6.10;;;;;;;18.11;58.22;95320.06;5071231;28;20048;-74
2023/09/03 01:17:56;;;;;;;9.18;6.32;;;;;;;18.22;58.12;95322.38;5075362;28;20032;-75
2023/09/03 01:20:27;;;;;;;6.95;6.25;;;;;;;18.24;57.87;95325.66;5082394;28;20045;-74
2023/09/03 01:23:08;;;;;;;6.93;6.22;;;;;;;18.27;57.82;95324.50;5071347;28;20028;-75
2023/09/03 01:25:52;;;;;;;7.22;6.00;;;;;;;18.17;58.03;95329.94;5091482;28;20100;-74
2023/09/03 01:28:30;;;;;;;7.28;6.18;;;;;;;18.12;58.12;95319.06;5091316;28;20056;-74
2023/09/03 01:31:03;;;;;;;7.60;5.90;;;;;;;17.96;58.26;95293.56;5066570;28;20032;-75
2023/09/03 01:33:30;;;;;;;8.43;5.85;;;;;;;18.16;58.27;95323.00;5055209;28;20029;-75
2023/09/03 01:35:57;;;;;;;6.45;5.82;;;;;;;18.07;58.33;95326.59;5054610;28;20111;-74
2023/09/03 01:38:22;;;;;;;8.38;6.32;;;;;;;17.92;58.78;95312.47;5054525;28;20494;-74
2023/09/03 01:40:48;;;;;;;6.32;5.72;;;;;;;17.91;58.58;95302.91;5070406;28;20047;-74
2023/09/03 01:43:14;;;;;;;7.20;6.50;;;;;;;17.97;58.59;95313.63;5074275;28;20036;-75
2023/09/03 01:45:46;;;;;;;6.68;5.95;;;;;;;17.96;58.72;95325.09;5070142;28;20445;-74
2023/09/03 01:48:22;;;;;;;6.53;5.80;;;;;;;17.94;58.71;95313.94;5089014;28;20039;-75
2023/09/03 01:50:52;;;;;;;6.75;6.05;;;;;;;17.85;59.14;95314.88;5054344;28;20510;-74
2023/09/03 01:53:20;;;;;;;6.70;6.00;;;;;;;17.82;58.87;95307.31;5071011;28;20036;-75
2023/09/03 01:55:49;;;;;;;6.93;5.90;;;;;;;17.79;59.11;95310.28;5058751;28;20060;-75
2023/09/03 01:58:14;;;;;;;6.35;5.65;;;;;;;17.65;59.46;95317.75;5054098;28;20040;-73
2023/09/03 02:00:40;;;;;;;6.90;5.78;;;;;;;17.75;59.06;95320.25;5070704;28;20032;-74
2023/09/03 02:03:05;;;;;;;6.88;6.18;;;;;;;17.72;59.03;95312.69;5089848;28;20024;-74
2023/09/03 02:05:31;;;;;;;6.63;5.70;;;;;;;17.36;59.45;95278.72;5073387;28;20040;-75
2023/09/03 02:07:56;;;;;;;6.72;6.00;;;;;;;17.58;59.64;95316.75;5080217;28;20035;-74
2023/09/03 02:10:22;;;;;;;6.75;6.13;;;;;;;17.49;59.96;95314.22;5071028;28;20040;-75
2023/09/03 02:12:47;;;;;;;7.00;5.78;;;;;;;17.50;59.73;95305.38;5070348;28;20039;-74
2023/09/03 02:15:12;;;;;;;6.95;6.15;;;;;;;17.45;59.61;95308.47;5070106;28;20063;-74
2023/09/03 02:17:38;;;;;;;7.20;5.97;;;;;;;17.21;59.98;95285.53;5072317;28;20033;-74
2023/09/03 02:20:04;;;;;;;7.78;6.47;;;;;;;17.31;60.46;95312.50;5077929;28;20448;-74
2023/09/03 02:22:29;;;;;;;6.30;5.70;;;;;;;17.30;60.41;95320.53;5090316;28;20036;-74
2023/09/03 02:24:55;;;;;;;7.07;6.38;;;;;;;17.33;60.61;95321.06;5091488;28;20032;-74
2023/09/03 02:27:20;;;;;;;6.65;5.75;;;;;;;17.14;60.47;95300.28;5077172;28;20497;-74
2023/09/03 02:29:46;;;;;;;7.80;5.97;;;;;;;17.36;60.32;95328.63;5069919;28;20086;-74
2023/09/03 02:32:11;;;;;;;7.25;6.13;;;;;;;17.20;60.87;95325.91;5070006;28;20036;-74
2023/09/03 02:34:37;;;;;;;6.72;5.80;;;;;;;17.22;60.60;95312.59;5071153;28;20040;-74
2023/09/03 02:37:02;;;;;;;7.53;6.05;;;;;;;17.33;60.64;95325.50;5067823;28;20031;-74
2023/09/03 02:39:28;;;;;;;11.48;6.30;;;;;;;17.31;60.55;95315.13;5069183;28;20024;-74
2023/09/03 02:41:53;;;;;;;7.13;6.30;;;;;;;17.35;60.46;95324.31;5052766;28;20521;-74
2023/09/03 02:44:18;;;;;;;7.50;6.00;;;;;;;17.30;60.16;95304.78;5052696;28;20514;-74
2023/09/03 02:46:44;;;;;;;6.65;5.95;;;;;;;17.38;59.98;95334.53;5084198;28;20031;-74
2023/09/03 02:49:10;;;;;;;7.25;6.03;;;;;;;17.37;60.17;95324.19;5091122;28;20024;-74
2023/09/03 02:51:36;;;;;;;6.65;5.95;;;;;;;17.33;60.25;95326.31;5068727;28;20032;-73
2023/09/03 02:54:02;;;;;;;6.75;6.05;;;;;;;17.33;59.95;95320.25;5070686;28;20026;-74
2023/09/03 02:56:28;;;;;;;7.05;5.70;;;;;;;17.36;59.88;95314.66;5071936;28;20032;-74
2023/09/03 02:58:53;;;;;;;6.97;6.20;;;;;;;17.38;59.91;95316.16;5074008;28;20038;-75
2023/09/03 03:01:20;;;;;;;6.13;5.53;;;;;;;17.28;59.99;95322.50;5072752;28;20040;-74
2023/09/03 03:03:45;;;;;;;6.45;5.55;;;;;;;17.35;60.04;95324.31;5072548;28;20024;-74
2023/09/03 03:06:11;;;;;;;8.00;6.03;;;;;;;17.34;60.11;95338.44;5083658;28;20031;-74
2023/09/03 03:08:36;;;;;;;7.35;6.00;;;;;;;17.29;60.26;95326.75;5091046;28;20032;-74
2023/09/03 03:11:09;;;;;;;6.75;6.05;;;;;;;17.22;60.39;95331.81;5089850;28;20413;-75
2023/09/03 03:13:35;;;;;;;7.05;6.10;;;;;;;17.13;60.84;95330.97;5054309;28;20603;-74
2023/09/03 03:16:18;;;;;;;9.80;6.57;;;;;;;17.21;60.68;95319.66;5068645;28;20127;-73
2023/09/03 03:18:45;;;;;;;7.13;6.35;;;;;;;17.32;60.44;95318.56;5052772;28;20033;-74
2023/09/03 03:21:14;;;;;;;7.72;6.90;;;;;;;17.25;60.48;95310.50;5082641;28;20485;-73
2023/09/03 03:23:40;;;;;;;6.43;5.82;;;;;;;17.17;60.51;95303.41;5095000;28;20046;-73
2023/09/03 03:26:05;;;;;;;7.40;6.05;;;;;;;17.21;60.33;95301.28;5059369;28;20033;-74
2023/09/03 03:28:32;;;;;;;7.25;6.03;;;;;;;17.06;60.61;95314.16;5074737;28;20028;-74
2023/09/03 03:31:14;;;;;;;6.65;5.95;;;;;;;16.89;60.79;95289.63;5056772;28;20040;-74
2023/09/03 03:33:40;;;;;;;6.82;6.10;;;;;;;17.00;60.92;95301.66;5073283;28;20115;-74
2023/09/03 03:36:06;;;;;;;7.55;6.10;;;;;;;16.95;60.99;95315.25;5091342;28;20036;-74
2023/09/03 03:38:31;;;;;;;5.97;5.32;;;;;;;16.89;61.17;95309.78;5059913;28;20038;-74
2023/09/03 03:41:07;;;;;;;6.88;6.15;;;;;;;16.91;61.38;95306.03;5091960;28;20060;-74
2023/09/03 03:43:33;;;;;;;8.65;6.32;;;;;;;16.90;61.54;95314.88;5084851;28;20029;-74
2023/09/03 03:45:59;;;;;;;6.80;6.10;;;;;;;16.98;61.45;95311.50;5091287;28;20028;-74
2023/09/03 03:48:24;;;;;;;7.00;6.10;;;;;;;16.77;61.95;95317.09;5093337;28;20551;-74
2023/09/03 03:50:54;;;;;;;6.63;5.95;;;;;;;16.70;62.14;95310.78;5077190;28;20040;-74
2023/09/03 03:53:20;;;;;;;8.48;5.97;;;;;;;16.60;62.55;95307.41;5061936;28;20390;-75
2023/09/03 03:55:45;;;;;;;8.00;5.57;;;;;;;16.51;62.76;95296.03;5078091;28;20073;-75
2023/09/03 03:58:10;;;;;;;7.60;6.80;;;;;;;16.46;62.82;95301.72;5074177;28;20024;-74
2023/09/03 04:00:36;;;;;;;7.05;6.05;;;;;;;16.56;62.87;95311.31;5074272;28;20449;-74
2023/09/03 04:03:01;;;;;;;6.82;5.97;;;;;;;16.54;62.82;95299.16;5069284;28;20028;-74
2023/09/03 04:05:26;;;;;;;8.35;5.85;;;;;;;16.54;62.76;95300.97;5083216;28;20043;-75
2023/09/03 04:07:52;;;;;;;7.00;6.28;;;;;;;16.49;63.24;95311.94;5092934;28;20031;-74
2023/09/03 04:10:17;;;;;;;6.85;6.15;;;;;;;16.65;62.85;95316.47;5057604;28;20032;-74
2023/09/03 04:12:43;;;;;;;6.18;5.57;;;;;;;16.55;63.01;95321.00;5073518;28;20029;-74
2023/09/03 04:15:08;;;;;;;6.65;5.95;;;;;;;16.72;62.45;95324.56;5073685;28;20052;-74
2023/09/03 04:17:34;;;;;;;6.75;5.72;;;;;;;16.54;62.79;95307.03;5055827;28;20056;-74
2023/09/03 04:19:59;;;;;;;6.80;5.93;;;;;;;16.34;63.12;95294.25;5073506;28;20029;-73
2023/09/03 04:22:25;;;;;;;7.32;6.03;;;;;;;16.46;63.01;95317.44;5073619;28;20414;-74
2023/09/03 04:24:50;;;;;;;7.50;6.18;;;;;;;16.67;62.89;95334.69;5074770;28;20478;-74
2023/09/03 04:27:15;;;;;;;7.18;5.78;;;;;;;16.62;63.09;95331.69;5072327;28;20036;-74
2023/09/03 04:29:41;;;;;;;7.38;6.60;;;;;;;16.56;63.17;95321.81;5075483;28;20033;-74
2023/09/03 04:32:06;;;;;;;8.38;6.25;;;;;;;16.65;63.10;95320.88;5059011;28;20078;-74
2023/09/03 04:34:32;;;;;;;7.18;6.47;;;;;;;16.67;63.12;95318.94;5074882;28;20032;-73
2023/09/03 04:36:57;;;;;;;7.40;5.72;;;;;;;16.58;63.43;95317.25;5056409;28;20032;-73
2023/09/03 04:39:22;;;;;;;6.55;5.85;;;;;;;16.50;63.74;95308.31;5055281;28;20033;-73
2023/09/03 04:41:48;;;;;;;7.03;6.32;;;;;;;16.49;63.93;95313.69;5055274;28;20033;-73
2023/09/03 04:44:13;;;;;;;7.63;5.93;;;;;;;16.59;63.81;95316.25;5079643;28;20028;-74
2023/09/03 04:46:39;;;;;;;6.90;6.20;;;;;;;16.71;63.70;95312.41;5093308;28;20502;-73
2023/09/03 04:49:04;;;;;;;6.90;6.20;;;;;;;16.65;63.95;95313.03;5090232;28;20029;-74
2023/09/03 04:51:30;;;;;;;7.82;5.90;;;;;;;17.03;62.71;95324.97;5055134;28;20047;-73
2023/09/03 04:53:55;;;;;;;8.77;6.10;;;;;;;16.91;63.40;95311.28;5073133;28;20025;-73
2023/09/03 04:56:21;;;;;;;10.00;6.57;;;;;;;17.24;62.84;95316.72;5073429;28;20404;-74
2023/09/03 04:58:47;;;;;;;8.55;6.30;;;;;;;17.80;61.14;95298.75;5064489;28;20035;-74
2023/09/03 05:01:15;;;;;;;6.82;6.10;;;;;;;18.57;58.90;95291.50;5083088;28;20025;-74
2023/09/03 05:03:41;;;;;;;7.32;6.50;;;;;;;19.32;56.59;95290.44;5063760;28;20040;-74
2023/09/03 05:06:10;;;;;;;6.93;6.20;;;;;;;19.95;55.08;95286.91;5072624;28;20067;-74
2023/09/03 05:08:36;;;;;;;10.00;6.07;;;;;;;20.09;53.98;95259.78;5054771;28;20406;-74
2023/09/03 05:11:12;;;;;;;7.53;6.28;;;;;;;20.90;51.86;95289.22;5076770;28;20035;-73
2023/09/03 05:13:38;;;;;;;7.13;5.75;;;;;;;21.61;49.98;95286.16;5068135;28;20028;-74
2023/09/03 05:16:04;;;;;;;7.68;6.20;;;;;;;22.04;48.97;95263.31;5076685;28;20072;-75
2023/09/03 05:18:30;;;;;;;7.28;5.80;;;;;;;22.27;48.19;95271.09;5057750;28;20522;-74
2023/09/03 05:20:55;;;;;;;6.75;6.05;;;;;;;21.20;50.44;95289.22;5085228;28;20036;-73
2023/09/03 05:23:21;;;;;;;6.30;5.70;;;;;;;21.42;50.57;95269.88;5069858;28;20036;-74
2023/09/03 05:25:46;;;;;;;11.75;5.68;;;;;;;21.27;50.61;95287.50;5086473;28;20044;-74
2023/09/03 05:28:12;;;;;;;7.57;5.88;;;;;;;21.22;50.96;95276.66;5071838;28;20340;-73
2023/09/03 05:30:38;;;;;;;9.30;6.13;;;;;;;21.42;51.06;95282.25;5059280;28;20485;-73
2023/09/03 05:33:04;;;;;;;7.45;5.88;;;;;;;21.10;51.38;95275.50;5082244;28;20027;-72
2023/09/03 05:35:29;;;;;;;8.15;6.15;;;;;;;21.04;51.57;95277.03;5085199;28;20325;-74
2023/09/03 05:37:55;;;;;;;8.23;5.90;;;;;;;21.01;51.27;95284.50;5057508;28;20024;-74
2023/09/03 05:40:20;;;;;;;7.97;5.75;;;;;;;21.26;50.92;95283.25;5071851;28;20031;-73
2023/09/03 05:42:47;;;;;;;9.40;5.75;;;;;;;21.11;51.12;95279.75;5084275;28;20494;-73
2023/09/03 05:45:13;;;;;;;8.10;6.25;;;;;;;21.21;51.09;95285.59;5058417;28;20020;-73
2023/09/03 05:47:38;;;;;;;11.20;5.93;;;;;;;21.29;51.53;95288.16;5078474;28;20070;-73
2023/09/03 05:50:05;;;;;;;8.30;6.07;;;;;;;21.10;51.34;95286.06;5078759;28;20048;-73
2023/09/03 05:52:31;;;;;;;14.63;6.90;;;;;;;21.24;51.33;95282.59;5086177;28;20050;-73
2023/09/03 05:54:56;;;;;;;9.23;6.43;;;;;;;21.74;50.17;95280.25;5078173;28;20031;-73
2023/09/03 05:57:22;;;;;;;8.38;6.97;;;;;;;21.90;50.20;95295.06;5061511;28;20037;-73
2023/09/03 05:59:50;;;;;;;12.35;8.13;;;;;;;21.11;51.50;95269.19;5082531;28;20036;-73
2023/09/03 06:02:16;;;;;;;12.93;7.72;;;;;;;21.15;51.15;95268.66;5057827;28;20489;-71
2023/09/03 06:04:42;;;;;;;8.50;7.63;;;;;;;21.43;50.87;95302.41;5068133;28;20029;-73
2023/09/03 06:07:09;;;;;;;10.20;7.25;;;;;;;21.53;50.18;95288.91;5073267;28;20036;-73
2023/09/03 06:09:35;;;;;;;7.75;6.95;;;;;;;21.74;49.77;95307.50;5068968;28;20418;-74
2023/09/03 06:12:01;;;;;;;8.77;6.97;;;;;;;21.70;49.86;95303.56;5081796;28;20398;-74
2023/09/03 06:14:27;;;;;;;9.13;7.70;;;;;;;21.67;50.46;95313.69;5069500;28;20093;-74
2023/09/03 06:16:54;;;;;;;7.50;6.18;;;;;;;21.58;50.43;95310.31;5074839;28;20062;-75
2023/09/03 06:19:20;;;;;;;8.15;7.10;;;;;;;21.42;50.71;95287.53;5082177;28;20092;-79
2023/09/03 06:21:46;;;;;;;7.85;6.97;;;;;;;22.02;49.34;95307.63;5073740;28;20036;-78
2023/09/03 06:24:12;;;;;;;7.47;6.72;;;;;;;21.93;49.03;95297.34;5084095;28;20049;-76
2023/09/03 06:26:37;;;;;;;10.50;7.30;;;;;;;21.44;50.36;95287.38;5067709;28;20527;-77
2023/09/03 06:29:02;;;;;;;9.20;7.53;;;;;;;21.51;50.67;95314.72;5082563;28;20032;-76
2023/09/03 06:31:28;;;;;;;9.88;7.18;;;;;;;21.48;50.93;95315.91;5085308;28;20042;-76
2023/09/03 06:33:54;;;;;;;10.80;7.32;;;;;;;21.68;50.60;95313.53;5088128;28;20035;-78
2023/09/03 06:36:20;;;;;;;8.80;7.18;;;;;;;21.53;49.90;95294.19;5089098;28;20043;-76
2023/09/03 06:38:46;;;;;;;8.15;7.18;;;;;;;21.82;49.25;95319.81;5089010;28;20032;-75
2023/09/03 06:41:12;;;;;;;8.77;6.88;;;;;;;21.74;49.81;95323.34;5089769;28;20099;-74
2023/09/03 06:43:38;;;;;;;9.40;7.00;;;;;;;21.68;49.86;95318.00;5068248;28;20306;-81
2023/09/03 06:46:03;;;;;;;7.07;6.10;;;;;;;21.99;49.68;95328.34;5050998;28;20028;-77
2023/09/03 06:48:29;;;;;;;8.82;7.47;;;;;;;21.80;50.04;95322.63;5086532;28;20030;-75
2023/09/03 06:50:56;;;;;;;9.05;7.07;;;;;;;21.95;49.75;95332.34;5061340;28;20032;-77
2023/09/03 06:53:21;;;;;;;8.40;6.75;;;;;;;22.13;49.05;95294.94;5066640;28;20020;-80
2023/09/03 06:55:46;;;;;;;7.32;6.57;;;;;;;22.01;49.27;95318.41;5051549;28;20031;-82
2023/09/03 06:58:12;;;;;;;7.72;6.90;;;;;;;22.32;49.09;95320.00;5052073;28;20016;-75
2023/09/03 07:00:37;;;;;;;11.15;7.15;;;;;;;22.57;48.18;95313.34;5077198;28;20033;-75
2023/09/03 07:03:03;;;;;;;12.25;6.72;;;;;;;22.78;48.04;95314.31;5068022;28;20021;-73
2023/09/03 07:05:28;;;;;;;8.23;6.75;;;;;;;22.81;47.69;95319.25;5082589;28;20396;-76
2023/09/03 07:07:54;;;;;;;7.63;6.45;;;;;;;22.97;47.50;95322.47;5078008;28;20025;-76
2023/09/03 07:10:19;;;;;;;8.35;7.18;;;;;;;23.04;46.94;95311.09;5077873;28;20044;-81
2023/09/03 07:12:44;;;;;;;9.75;6.90;;;;;;;22.75;47.77;95304.94;5066548;28;20357;-78
2023/09/03 07:15:10;;;;;;;7.20;6.28;;;;;;;22.97;47.43;95308.41;5068994;28;20056;-77
2023/09/03 07:17:37;;;;;;;7.47;6.38;;;;;;;23.08;46.98;95310.53;5077263;28;20483;-77
2023/09/03 07:20:02;;;;;;;7.35;6.63;;;;;;;23.22;47.10;95315.94;5082652;28;20032;-78
2023/09/03 07:22:28;;;;;;;8.50;6.70;;;;;;;23.70;45.59;95305.41;5060552;28;20024;-74
2023/09/03 07:24:53;;;;;;;7.10;6.40;;;;;;;23.66;45.78;95304.19;5052486;28;20473;-73
2023/09/03 07:27:19;;;;;;;11.65;6.28;;;;;;;23.92;45.00;95317.56;5072114;28;20059;-79
2023/09/03 07:29:44;;;;;;;8.20;6.55;;;;;;;24.05;45.00;95308.88;5063003;28;20401;-81
2023/09/03 07:32:10;;;;;;;8.20;6.15;;;;;;;24.17;44.69;95306.44;5086494;28;20043;-81
2023/09/03 07:34:35;;;;;;;7.43;6.15;;;;;;;24.13;44.32;95307.88;5089396;28;20056;-77
2023/09/03 07:37:00;;;;;;;6.57;5.88;;;;;;;24.15;43.76;95292.56;5072558;28;20032;-81
2023/09/03 07:39:27;;;;;;;8.52;6.03;;;;;;;24.27;44.27;95289.13;5079814;28;20020;-79
2023/09/03 07:41:56;;;;;;;8.43;5.82;;;;;;;24.69;43.83;95308.44;5069765;28;20039;-76
2023/09/03 07:44:23;;;;;;;7.30;5.90;;;;;;;24.35;44.33;95312.03;5088564;28;20463;-78
2023/09/03 07:46:48;;;;;;;10.05;5.88;;;;;;;24.30;44.32;95303.84;5070454;28;20509;-80
2023/09/03 07:49:15;;;;;;;8.15;6.18;;;;;;;24.36;44.31;95313.66;5089203;28;20024;-80
2023/09/03 07:51:41;;;;;;;6.97;6.00;;;;;;;24.71;43.69;95297.59;5091145;28;20040;-81
2023/09/03 07:54:06;;;;;;;6.90;5.63;;;;;;;25.29;42.32;95310.28;5090231;28;20031;-80
2023/09/03 07:56:31;;;;;;;10.15;6.00;;;;;;;24.88;41.95;95308.66;5073539;28;20044;-80
2023/09/03 07:58:57;;;;;;;6.07;5.47;;;;;;;24.73;42.44;95304.34;5086559;28;20028;-81
2023/09/03 08:01:22;;;;;;;8.20;6.13;;;;;;;24.92;42.72;95312.53;5091132;28;20031;-80
2023/09/03 08:03:48;;;;;;;7.55;5.50;;;;;;;25.23;41.58;95309.28;5089444;28;20421;-80
2023/09/03 08:06:16;;;;;;;5.85;5.28;;;;;;;25.40;41.16;95305.16;5089733;28;20028;-80
2023/09/03 08:08:41;;;;;;;7.32;5.68;;;;;;;25.21;42.01;95295.38;5090779;28;20032;-81
2023/09/03 08:11:07;;;;;;;7.22;5.75;;;;;;;25.31;41.77;95295.78;5093370;28;20059;-80
2023/09/03 08:13:32;;;;;;;6.85;5.28;;;;;;;25.60;40.88;95309.63;5094263;28;20485;-81
2023/09/03 08:15:57;;;;;;;7.13;4.88;;;;;;;25.85;40.95;95301.78;5094400;28;20044;-81
2023/09/03 08:18:23;;;;;;;5.75;5.15;;;;;;;25.57;41.08;95294.09;5092823;28;20040;-80
2023/09/03 08:20:49;;;;;;;8.48;5.10;;;;;;;25.56;41.15;95295.13;5091030;28;20020;-81
2023/09/03 08:23:14;;;;;;;6.63;5.40;;;;;;;25.67;40.40;95296.31;5090929;28;20422;-80
2023/09/03 08:25:40;;;;;;;7.13;5.18;;;;;;;25.72;39.90;95292.00;5057308;28;20024;-81
2023/09/03 08:28:09;;;;;;;6.93;5.40;;;;;;;25.92;39.49;95285.81;5091167;28;20040;-80
2023/09/03 08:30:35;;;;;;;5.50;4.87;;;;;;;25.98;38.63;95279.66;5057922;28;20020;-81
2023/09/03 08:33:00;;;;;;;8.40;4.70;;;;;;;25.62;38.18;95286.28;5090960;28;20528;-81
2023/09/03 08:35:27;;;;;;;5.72;5.15;;;;;;;25.95;37.59;95288.06;5092437;28;20030;-81
2023/09/03 08:37:52;;;;;;;7.10;5.20;;;;;;;26.19;36.65;95282.03;5092903;28;20032;-80
2023/09/03 08:40:18;;;;;;;5.50;4.38;;;;;;;26.40;36.50;95275.53;5059184;28;20081;-80
2023/09/03 08:42:45;;;;;;;5.90;4.15;;;;;;;26.62;36.50;95276.03;5076029;28;20040;-79
2023/09/03 08:45:11;;;;;;;5.00;4.50;;;;;;;26.87;35.24;95261.91;5092680;28;20048;-80
2023/09/03 08:47:41;;;;;;;4.88;4.38;;;;;;;26.87;35.67;95259.25;5092536;28;20093;-80
2023/09/03 08:50:14;;;;;;;6.05;5.18;;;;;;;26.64;36.03;95262.50;5076043;28;20073;-80
2023/09/03 08:52:40;;;;;;;7.50;4.90;;;;;;;26.83;34.87;95258.03;5075939;28;20093;-80
2023/09/03 08:55:06;;;;;;;5.70;4.55;;;;;;;26.93;32.01;95256.53;5092308;28;20050;-80
2023/09/03 08:57:34;;;;;;;4.53;4.13;;;;;;;26.51;33.41;95258.09;5075616;28;20494;-80
2023/09/03 09:00:00;;;;;;;6.53;4.63;;;;;;;26.89;33.13;95252.69;5092642;28;20032;-81
2023/09/03 09:02:26;;;;;;;7.63;4.70;;;;;;;26.86;33.10;95237.13;5092268;28;20039;-80
2023/09/03 09:04:51;;;;;;;5.30;4.18;;;;;;;26.72;33.32;95248.94;5058781;28;20016;-81
2023/09/03 09:07:17;;;;;;;4.90;4.40;;;;;;;26.66;33.38;95250.63;5075609;28;20051;-81
2023/09/03 09:09:44;;;;;;;4.90;4.38;;;;;;;26.81;34.02;95238.81;5092315;28;20031;-81
2023/09/03 09:12:18;;;;;;;7.97;4.95;;;;;;;26.83;33.57;95226.91;5075564;28;20122;-81
2023/09/03 09:14:59;;;;;;;6.50;4.32;;;;;;;26.69;34.12;95231.53;5075372;28;20032;-81
2023/09/03 09:17:24;;;;;;;6.50;4.90;;;;;;;26.76;33.43;95220.81;5075464;28;20027;-80
2023/09/03 09:19:50;;;;;;;6.82;4.47;;;;;;;26.82;33.21;95227.09;5075201;28;20413;-81
2023/09/03 09:22:15;;;;;;;5.15;4.45;;;;;;;26.86;32.02;95217.66;5092253;28;20497;-81
2023/09/03 09:24:44;;;;;;;5.03;4.22;;;;;;;26.95;33.07;95227.00;5074818;28;20035;-81
2023/09/03 09:27:17;;;;;;;6.00;4.55;;;;;;;26.95;33.13;95227.00;5075149;28;20036;-81
2023/09/03 09:29:42;;;;;;;5.75;4.32;;;;;;;26.80;32.24;95229.16;5093175;28;20123;-81
2023/09/03 09:32:22;;;;;;;5.03;4.53;;;;;;;26.87;32.70;95221.94;5058148;28;20149;-80
2023/09/03 09:34:47;;;;;;;5.07;4.30;;;;;;;27.24;31.92;95217.50;5091779;28;20032;-81
2023/09/03 09:37:13;;;;;;;4.57;4.18;;;;;;;27.27;31.60;95192.25;5074882;28;20776;-81
2023/09/03 09:39:45;;;;;;;5.53;4.45;;;;;;;27.30;31.17;95197.97;5057806;28;20455;-80
2023/09/03 09:42:18;;;;;;;4.45;4.05;;;;;;;27.44;31.88;95198.63;5058267;28;20417;-80
2023/09/03 09:44:52;;;;;;;4.90;4.40;;;;;;;27.45;32.00;95200.28;5092706;28;20027;-80
2023/09/03 09:47:18;;;;;;;4.82;4.43;;;;;;;27.58;32.12;95200.13;5092750;28;20114;-81
2023/09/03 09:49:43;;;;;;;4.80;4.32;;;;;;;27.65;31.05;95194.69;5074285;28;20028;-81
2023/09/03 09:52:11;;;;;;;8.27;4.60;;;;;;;27.87;30.71;95195.06;5057571;28;20119;-80
2023/09/03 09:54:40;;;;;;;6.55;4.90;;;;;;;28.03;29.57;95181.09;5074143;28;20028;-80
2023/09/03 09:57:24;;;;;;;7.55;4.40;;;;;;;27.83;29.12;95181.34;5057488;28;20085;-80
2023/09/03 09:59:53;;;;;;;6.03;4.90;;;;;;;28.12;28.67;95170.91;5057735;28;20516;-80
2023/09/03 10:02:19;;;;;;;9.13;4.97;;;;;;;27.94;28.82;95174.41;5091117;28;20028;-80
2023/09/03 10:04:49;;;;;;;5.00;4.50;;;;;;;27.91;28.90;95166.84;5057301;28;20444;-80
2023/09/03 10:07:15;;;;;;;5.18;4.68;;;;;;;28.02;29.23;95163.41;5057395;28;20039;-80
2023/09/03 10:09:42;;;;;;;5.30;4.78;;;;;;;27.97;29.54;95165.13;5073934;28;20130;-80
2023/09/03 10:12:08;;;;;;;5.30;4.57;;;;;;;28.17;29.60;95163.00;5090848;28;20448;-80
2023/09/03 10:14:34;;;;;;;5.82;4.68;;;;;;;28.05;30.19;95160.31;5057070;28;20058;-80
2023/09/03 10:17:00;;;;;;;5.57;4.60;;;;;;;28.11;28.89;95149.75;5073950;28;20111;-81
2023/09/03 10:19:42;;;;;;;5.13;4.60;;;;;;;28.39;28.82;95141.94;5074033;28;20476;-80
2023/09/03 10:22:10;;;;;;;4.90;4.43;;;;;;;28.06;28.54;95124.56;5091870;28;20036;-80
2023/09/03 10:24:36;;;;;;;7.25;4.63;;;;;;;27.79;28.96;95112.59;5073762;28;20035;-80
2023/09/03 10:27:03;;;;;;;5.53;4.20;;;;;;;27.83;29.07;95137.81;5056793;28;20521;-81
2023/09/03 10:29:29;;;;;;;4.43;4.03;;;;;;;27.76;28.11;95137.09;5056917;28;20512;-80
2023/09/03 10:31:54;;;;;;;6.90;4.28;;;;;;;27.90;28.91;95141.22;5072964;28;20028;-80
2023/09/03 10:34:20;;;;;;;4.72;4.30;;;;;;;27.85;27.43;95127.75;5056881;28;20471;-80
2023/09/03 10:37:05;;;;;;;6.00;4.00;;;;;;;27.75;27.30;95133.59;5073469;28;20493;-80
2023/09/03 10:39:30;;;;;;;4.90;4.10;;;;;;;27.85;26.67;95125.06;5073400;28;20425;-79
2023/09/03 10:42:14;;;;;;;4.65;4.10;;;;;;;27.81;26.82;95129.25;5090449;28;20024;-79
2023/09/03 10:44:53;;;;;;;4.85;3.92;;;;;;;27.66;25.73;95116.25;5090073;28;20623;-80
2023/09/03 10:47:18;;;;;;;4.22;3.83;;;;;;;27.68;25.72;95124.88;5074539;28;20103;-80
2023/09/03 10:49:44;;;;;;;4.47;4.00;;;;;;;27.65;26.36;95119.19;5052891;28;20051;-79
2023/09/03 10:52:30;;;;;;;6.18;3.72;;;;;;;27.60;26.49;95109.16;5051189;28;20235;-80
2023/09/03 10:55:19;;;;;;;4.60;3.80;;;;;;;27.46;27.49;95118.38;5070347;28;20025;-79
2023/09/03 10:57:49;;;;;;;5.18;4.32;;;;;;;27.25;27.55;95103.69;5070860;28;20563;-80
2023/09/03 11:00:20;;;;;;;4.63;3.80;;;;;;;27.70;25.77;95109.44;5052056;28;20437;-80
2023/09/03 11:02:46;;;;;;;4.15;3.70;;;;;;;27.48;26.57;95087.78;5070101;28;20287;-80
2023/09/03 11:05:23;;;;;;;4.43;3.58;;;;;;;27.74;27.22;95097.28;5053123;28;20115;-80
2023/09/03 11:07:49;;;;;;;5.63;4.05;;;;;;;27.49;27.42;95081.41;5053420;28;20082;-79
2023/09/03 11:10:21;;;;;;;5.30;3.42;;;;;;;27.52;27.05;95088.94;5036663;28;20024;-80
2023/09/03 11:12:49;;;;;;;4.70;3.70;;;;;;;27.60;27.06;95085.97;5071139;28;20037;-80
2023/09/03 11:15:15;;;;;;;3.47;3.17;;;;;;;27.70;26.91;95087.28;5068701;28;20045;-80
2023/09/03 11:17:55;;;;;;;4.82;3.65;;;;;;;27.63;27.38;95085.50;5069631;28;20050;-80
2023/09/03 11:20:30;;;;;;;4.00;3.60;;;;;;;27.75;26.48;95074.91;5069883;28;20032;-79
2023/09/03 11:22:56;;;;;;;5.93;3.70;;;;;;;27.68;26.82;95076.84;5069762;28;20029;-80
2023/09/03 11:25:31;;;;;;;4.70;3.20;;;;;;;27.78;26.77;95087.78;5036036;28;20040;-80
2023/09/03 11:27:56;;;;;;;4.28;3.50;;;;;;;27.66;28.35;95056.75;5069699;28;20073;-80
2023/09/03 11:30:22;;;;;;;5.13;3.70;;;;;;;27.97;27.77;95069.88;5069586;28;20037;-80
2023/09/03 11:32:47;;;;;;;4.25;3.55;;;;;;;28.16;27.26;95057.22;5053068;28;20040;-80
2023/09/03 11:35:12;;;;;;;5.95;3.40;;;;;;;28.43;26.42;95062.97;5069571;28;20033;-80